sensor_id;sensor_type;location;lat;lon;timestamp;temperature;humidity
51950;DHT22;37974;53.218;6.640;2023-01-26T00:01:43;-0.20;99.90
51950;DHT22;37974;53.218;6.640;2023-01-26T00:04:10;-0.10;99.90
51950;DHT22;37974;53.218;6.640;2023-01-26T00:06:36;0.20;99.90
51950;DHT22;37974;53.218;6.640;2023-01-26T00:09:02;-0.20;99.90
51950;DHT22;37974;53.218;6.640;2023-01-26T00:11:28;-0.20;99.90
51950;DHT22;37974;53.218;6.640;2023-01-26T00:13:56;-0.10;99.90
51950;DHT22;37974;53.218;6.640;2023-01-26T00:16:22;0.30;99.90
51950;DHT22;37974;53.218;6.640;2023-01-26T00:18:48;0.90;99.90
51950;DHT22;37974;53.218;6.640;2023-01-26T00:21:16;1.00;99.90
51950;DHT22;37974;53.218;6.640;2023-01-26T00:23:42;0.10;99.90
51950;DHT22;37974;53.218;6.640;2023-01-26T00:26:10;0.50;99.90
51950;DHT22;37974;53.218;6.640;2023-01-26T00:28:37;0.60;99.90
51950;DHT22;37974;53.218;6.640;2023-01-26T00:31:04;-0.10;99.90
51950;DHT22;37974;53.218;6.640;2023-01-26T00:33:30;-0.10;99.90
51950;DHT22;37974;53.218;6.640;2023-01-26T00:35:56;-0.10;99.90
51950;DHT22;37974;53.218;6.640;2023-01-26T00:38:22;1.20;99.90
51950;DHT22;37974;53.218;6.640;2023-01-26T00:40:48;0.90;99.90
51950;DHT22;37974;53.218;6.640;2023-01-26T00:43:14;0.80;99.90
51950;DHT22;37974;53.218;6.640;2023-01-26T00:45:40;-0.10;99.90
51950;DHT22;37974;53.218;6.640;2023-01-26T00:48:06;-0.10;99.90
51950;DHT22;37974;53.218;6.640;2023-01-26T00:50:32;-0.10;99.90
51950;DHT22;37974;53.218;6.640;2023-01-26T00:52:58;1.00;99.90
51950;DHT22;37974;53.218;6.640;2023-01-26T00:55:25;0.50;99.90
51950;DHT22;37974;53.218;6.640;2023-01-26T00:57:58;1.20;99.90
51950;DHT22;37974;53.218;6.640;2023-01-26T01:00:24;-0.10;99.90
51950;DHT22;37974;53.218;6.640;2023-01-26T01:02:50;1.10;99.90
51950;DHT22;37974;53.218;6.640;2023-01-26T01:05:16;0.80;99.90
51950;DHT22;37974;53.218;6.640;2023-01-26T01:07:42;1.30;99.90
51950;DHT22;37974;53.218;6.640;2023-01-26T01:10:08;0.80;99.90
51950;DHT22;37974;53.218;6.640;2023-01-26T01:12:34;0.00;99.90
51950;DHT22;37974;53.218;6.640;2023-01-26T01:15:00;0.40;99.90
51950;DHT22;37974;53.218;6.640;2023-01-26T01:17:26;0.50;99.90
51950;DHT22;37974;53.218;6.640;2023-01-26T01:19:52;0.00;99.90
51950;DHT22;37974;53.218;6.640;2023-01-26T01:22:17;0.30;99.90
51950;DHT22;37974;53.218;6.640;2023-01-26T01:24:43;0.80;99.90
51950;DHT22;37974;53.218;6.640;2023-01-26T01:27:09;0.00;99.90
51950;DHT22;37974;53.218;6.640;2023-01-26T01:29:35;0.00;99.90
51950;DHT22;37974;53.218;6.640;2023-01-26T01:32:01;0.00;99.90
51950;DHT22;37974;53.218;6.640;2023-01-26T01:34:27;0.00;99.90
51950;DHT22;37974;53.218;6.640;2023-01-26T01:36:52;0.00;99.90
51950;DHT22;37974;53.218;6.640;2023-01-26T01:39:18;0.90;99.90
51950;DHT22;37974;53.218;6.640;2023-01-26T01:41:44;0.60;99.90
51950;DHT22;37974;53.218;6.640;2023-01-26T01:44:13;0.90;99.90
51950;DHT22;37974;53.218;6.640;2023-01-26T01:46:43;0.00;99.90
51950;DHT22;37974;53.218;6.640;2023-01-26T01:49:25;0.10;99.90
51950;DHT22;37974;53.218;6.640;2023-01-26T01:51:57;0.00;99.90
51950;DHT22;37974;53.218;6.640;2023-01-26T01:54:29;0.10;99.90
51950;DHT22;37974;53.218;6.640;2023-01-26T01:57:00;0.60;99.90
51950;DHT22;37974;53.218;6.640;2023-01-26T01:59:28;0.60;99.90
51950;DHT22;37974;53.218;6.640;2023-01-26T02:01:55;0.60;99.90
51950;DHT22;37974;53.218;6.640;2023-01-26T02:04:21;1.00;99.90
51950;DHT22;37974;53.218;6.640;2023-01-26T02:06:50;0.10;99.90
51950;DHT22;37974;53.218;6.640;2023-01-26T02:09:21;0.60;99.90
51950;DHT22;37974;53.218;6.640;2023-01-26T02:12:10;1.10;99.90
51950;DHT22;37974;53.218;6.640;2023-01-26T02:14:37;0.80;99.90
51950;DHT22;37974;53.218;6.640;2023-01-26T02:17:04;0.20;99.90
51950;DHT22;37974;53.218;6.640;2023-01-26T02:19:40;0.80;99.90
51950;DHT22;37974;53.218;6.640;2023-01-26T02:22:12;1.00;99.90
51950;DHT22;37974;53.218;6.640;2023-01-26T02:24:41;0.50;99.90
51950;DHT22;37974;53.218;6.640;2023-01-26T02:27:07;0.80;99.90
51950;DHT22;37974;53.218;6.640;2023-01-26T02:29:33;1.10;99.90
51950;DHT22;37974;53.218;6.640;2023-01-26T02:31:58;1.10;99.90
51950;DHT22;37974;53.218;6.640;2023-01-26T02:34:24;1.20;99.90
51950;DHT22;37974;53.218;6.640;2023-01-26T02:36:58;1.50;99.90
51950;DHT22;37974;53.218;6.640;2023-01-26T02:39:40;0.90;99.90
51950;DHT22;37974;53.218;6.640;2023-01-26T02:42:08;0.30;99.90
51950;DHT22;37974;53.218;6.640;2023-01-26T02:44:53;0.20;99.90
51950;DHT22;37974;53.218;6.640;2023-01-26T02:47:19;1.00;99.90
51950;DHT22;37974;53.218;6.640;2023-01-26T02:49:45;1.20;99.90
51950;DHT22;37974;53.218;6.640;2023-01-26T02:52:14;0.60;99.90
51950;DHT22;37974;53.218;6.640;2023-01-26T02:54:40;0.20;99.90
51950;DHT22;37974;53.218;6.640;2023-01-26T02:57:24;1.10;99.90
51950;DHT22;37974;53.218;6.640;2023-01-26T02:59:51;0.50;99.90
51950;DHT22;37974;53.218;6.640;2023-01-26T03:02:16;0.40;99.90
51950;DHT22;37974;53.218;6.640;2023-01-26T03:04:43;0.30;99.90
51950;DHT22;37974;53.218;6.640;2023-01-26T03:07:08;0.30;99.90
51950;DHT22;37974;53.218;6.640;2023-01-26T03:09:35;1.50;99.90
51950;DHT22;37974;53.218;6.640;2023-01-26T03:12:01;0.30;99.90
51950;DHT22;37974;53.218;6.640;2023-01-26T03:14:27;0.40;99.90
51950;DHT22;37974;53.218;6.640;2023-01-26T03:16:53;0.90;99.90
51950;DHT22;37974;53.218;6.640;2023-01-26T03:19:20;1.50;99.90
51950;DHT22;37974;53.218;6.640;2023-01-26T03:22:05;1.50;99.90
51950;DHT22;37974;53.218;6.640;2023-01-26T03:24:49;1.40;99.90
51950;DHT22;37974;53.218;6.640;2023-01-26T03:27:39;0.40;99.90
51950;DHT22;37974;53.218;6.640;2023-01-26T03:30:05;0.60;99.90
51950;DHT22;37974;53.218;6.640;2023-01-26T03:32:31;0.40;99.90
51950;DHT22;37974;53.218;6.640;2023-01-26T03:34:56;1.20;99.90
51950;DHT22;37974;53.218;6.640;2023-01-26T03:37:22;0.70;99.90
51950;DHT22;37974;53.218;6.640;2023-01-26T03:39:49;1.40;99.90
51950;DHT22;37974;53.218;6.640;2023-01-26T03:42:34;0.40;99.90
51950;DHT22;37974;53.218;6.640;2023-01-26T03:45:18;1.50;99.90
51950;DHT22;37974;53.218;6.640;2023-01-26T03:48:06;1.10;99.90
51950;DHT22;37974;53.218;6.640;2023-01-26T03:50:50;0.50;99.90
51950;DHT22;37974;53.218;6.640;2023-01-26T03:53:34;0.70;99.90
51950;DHT22;37974;53.218;6.640;2023-01-26T03:56:19;0.40;99.90
51950;DHT22;37974;53.218;6.640;2023-01-26T03:58:51;1.20;99.90
51950;DHT22;37974;53.218;6.640;2023-01-26T04:01:18;1.50;99.90
51950;DHT22;37974;53.218;6.640;2023-01-26T04:03:48;0.50;99.90
51950;DHT22;37974;53.218;6.640;2023-01-26T04:06:33;0.90;99.90
51950;DHT22;37974;53.218;6.640;2023-01-26T04:09:18;1.50;99.90
51950;DHT22;37974;53.218;6.640;2023-01-26T04:11:43;1.50;99.90
51950;DHT22;37974;53.218;6.640;2023-01-26T04:14:10;0.50;99.90
51950;DHT22;37974;53.218;6.640;2023-01-26T04:16:56;1.40;99.90
51950;DHT22;37974;53.218;6.640;2023-01-26T04:19:41;1.40;99.90
51950;DHT22;37974;53.218;6.640;2023-01-26T04:22:25;0.50;99.90
51950;DHT22;37974;53.218;6.640;2023-01-26T04:24:51;1.40;99.90
51950;DHT22;37974;53.218;6.640;2023-01-26T04:27:17;0.80;99.90
51950;DHT22;37974;53.218;6.640;2023-01-26T04:29:42;1.70;99.90
51950;DHT22;37974;53.218;6.640;2023-01-26T04:32:08;1.60;99.90
51950;DHT22;37974;53.218;6.640;2023-01-26T04:34:34;1.50;99.90
51950;DHT22;37974;53.218;6.640;2023-01-26T04:36:59;1.10;99.90
51950;DHT22;37974;53.218;6.640;2023-01-26T04:39:25;1.20;99.90
51950;DHT22;37974;53.218;6.640;2023-01-26T04:41:51;1.80;99.90
51950;DHT22;37974;53.218;6.640;2023-01-26T04:44:16;1.60;99.90
51950;DHT22;37974;53.218;6.640;2023-01-26T04:46:42;0.60;99.90
51950;DHT22;37974;53.218;6.640;2023-01-26T04:49:08;1.20;99.90
51950;DHT22;37974;53.218;6.640;2023-01-26T04:51:33;1.50;99.90
51950;DHT22;37974;53.218;6.640;2023-01-26T04:53:59;1.40;99.90
51950;DHT22;37974;53.218;6.640;2023-01-26T04:56:27;2.10;99.90
51950;DHT22;37974;53.218;6.640;2023-01-26T04:58:54;2.10;99.90
51950;DHT22;37974;53.218;6.640;2023-01-26T05:01:21;1.70;99.90
51950;DHT22;37974;53.218;6.640;2023-01-26T05:03:47;1.00;99.90
51950;DHT22;37974;53.218;6.640;2023-01-26T05:06:13;1.90;99.90
51950;DHT22;37974;53.218;6.640;2023-01-26T05:08:39;2.10;99.90
51950;DHT22;37974;53.218;6.640;2023-01-26T05:11:05;0.90;99.90
51950;DHT22;37974;53.218;6.640;2023-01-26T05:13:30;0.90;99.90
51950;DHT22;37974;53.218;6.640;2023-01-26T05:15:56;0.90;99.90
51950;DHT22;37974;53.218;6.640;2023-01-26T05:18:22;0.90;99.90
51950;DHT22;37974;53.218;6.640;2023-01-26T05:20:48;1.50;99.90
51950;DHT22;37974;53.218;6.640;2023-01-26T05:23:14;2.00;99.90
51950;DHT22;37974;53.218;6.640;2023-01-26T05:25:39;1.00;99.90
51950;DHT22;37974;53.218;6.640;2023-01-26T05:28:05;1.50;99.90
51950;DHT22;37974;53.218;6.640;2023-01-26T05:30:31;2.10;99.90
51950;DHT22;37974;53.218;6.640;2023-01-26T05:33:01;1.00;99.90
51950;DHT22;37974;53.218;6.640;2023-01-26T05:35:27;2.10;99.90
51950;DHT22;37974;53.218;6.640;2023-01-26T05:37:53;1.10;99.90
51950;DHT22;37974;53.218;6.640;2023-01-26T05:40:19;1.60;99.90
51950;DHT22;37974;53.218;6.640;2023-01-26T05:42:46;1.40;99.90
51950;DHT22;37974;53.218;6.640;2023-01-26T05:45:12;1.20;99.90
51950;DHT22;37974;53.218;6.640;2023-01-26T05:47:38;1.80;99.90
51950;DHT22;37974;53.218;6.640;2023-01-26T05:50:04;1.70;99.90
51950;DHT22;37974;53.218;6.640;2023-01-26T05:52:31;1.20;99.90
51950;DHT22;37974;53.218;6.640;2023-01-26T05:54:57;2.30;99.90
51950;DHT22;37974;53.218;6.640;2023-01-26T05:57:22;1.80;99.90
51950;DHT22;37974;53.218;6.640;2023-01-26T05:59:48;1.30;99.90
51950;DHT22;37974;53.218;6.640;2023-01-26T06:02:14;1.70;99.90
51950;DHT22;37974;53.218;6.640;2023-01-26T06:04:40;1.60;99.90
51950;DHT22;37974;53.218;6.640;2023-01-26T06:07:05;1.40;99.90
51950;DHT22;37974;53.218;6.640;2023-01-26T06:09:31;1.90;99.90
51950;DHT22;37974;53.218;6.640;2023-01-26T06:11:57;2.10;99.90
51950;DHT22;37974;53.218;6.640;2023-01-26T06:14:23;1.50;99.90
51950;DHT22;37974;53.218;6.640;2023-01-26T06:16:49;2.20;99.90
51950;DHT22;37974;53.218;6.640;2023-01-26T06:19:15;2.00;99.90
51950;DHT22;37974;53.218;6.640;2023-01-26T06:21:40;1.90;99.90
51950;DHT22;37974;53.218;6.640;2023-01-26T06:24:06;1.70;99.90
51950;DHT22;37974;53.218;6.640;2023-01-26T06:26:33;1.30;99.90
51950;DHT22;37974;53.218;6.640;2023-01-26T06:28:58;2.00;99.90
51950;DHT22;37974;53.218;6.640;2023-01-26T06:31:24;1.20;99.90
51950;DHT22;37974;53.218;6.640;2023-01-26T06:33:54;1.30;99.90
51950;DHT22;37974;53.218;6.640;2023-01-26T06:36:19;2.30;99.90
51950;DHT22;37974;53.218;6.640;2023-01-26T06:38:47;1.20;99.90
51950;DHT22;37974;53.218;6.640;2023-01-26T06:41:13;1.20;99.90
51950;DHT22;37974;53.218;6.640;2023-01-26T06:43:43;1.10;99.90
51950;DHT22;37974;53.218;6.640;2023-01-26T06:46:10;1.10;99.90
51950;DHT22;37974;53.218;6.640;2023-01-26T06:48:35;1.20;99.90
51950;DHT22;37974;53.218;6.640;2023-01-26T06:51:28;1.90;99.90
51950;DHT22;37974;53.218;6.640;2023-01-26T06:56:17;2.00;99.90
51950;DHT22;37974;53.218;6.640;2023-01-26T06:58:43;1.90;99.90
51950;DHT22;37974;53.218;6.640;2023-01-26T07:01:15;2.40;99.90
51950;DHT22;37974;53.218;6.640;2023-01-26T07:03:41;2.40;99.90
51950;DHT22;37974;53.218;6.640;2023-01-26T07:06:07;2.20;99.90
51950;DHT22;37974;53.218;6.640;2023-01-26T07:08:36;1.50;99.90
51950;DHT22;37974;53.218;6.640;2023-01-26T07:11:02;1.70;99.90
51950;DHT22;37974;53.218;6.640;2023-01-26T07:13:28;1.70;99.90
51950;DHT22;37974;53.218;6.640;2023-01-26T07:16:02;2.80;99.90
51950;DHT22;37974;53.218;6.640;2023-01-26T07:18:28;2.00;99.90
51950;DHT22;37974;53.218;6.640;2023-01-26T07:21:00;3.20;99.90
51950;DHT22;37974;53.218;6.640;2023-01-26T07:23:26;2.10;99.90
51950;DHT22;37974;53.218;6.640;2023-01-26T07:25:51;2.70;99.90
51950;DHT22;37974;53.218;6.640;2023-01-26T07:28:17;2.70;99.90
51950;DHT22;37974;53.218;6.640;2023-01-26T07:30:43;2.50;99.90
51950;DHT22;37974;53.218;6.640;2023-01-26T07:33:09;2.90;99.90
51950;DHT22;37974;53.218;6.640;2023-01-26T07:35:34;2.90;99.90
51950;DHT22;37974;53.218;6.640;2023-01-26T07:38:03;2.80;99.90
51950;DHT22;37974;53.218;6.640;2023-01-26T07:40:29;3.00;99.90
51950;DHT22;37974;53.218;6.640;2023-01-26T07:42:55;3.40;99.90
51950;DHT22;37974;53.218;6.640;2023-01-26T07:45:21;2.60;99.90
51950;DHT22;37974;53.218;6.640;2023-01-26T07:47:47;2.90;99.90
51950;DHT22;37974;53.218;6.640;2023-01-26T07:50:13;3.50;99.90
51950;DHT22;37974;53.218;6.640;2023-01-26T07:52:39;2.20;99.90
51950;DHT22;37974;53.218;6.640;2023-01-26T07:55:05;2.20;99.90
51950;DHT22;37974;53.218;6.640;2023-01-26T07:57:30;2.20;99.90
51950;DHT22;37974;53.218;6.640;2023-01-26T07:59:58;2.60;99.90
51950;DHT22;37974;53.218;6.640;2023-01-26T08:02:23;3.20;99.90
51950;DHT22;37974;53.218;6.640;2023-01-26T08:04:49;2.30;99.90
51950;DHT22;37974;53.218;6.640;2023-01-26T08:07:15;3.30;99.90
51950;DHT22;37974;53.218;6.640;2023-01-26T08:09:40;3.30;99.90
51950;DHT22;37974;53.218;6.640;2023-01-26T08:12:06;3.30;99.90
51950;DHT22;37974;53.218;6.640;2023-01-26T08:14:32;2.40;99.90
51950;DHT22;37974;53.218;6.640;2023-01-26T08:16:58;2.40;99.90
51950;DHT22;37974;53.218;6.640;2023-01-26T08:19:24;2.40;99.90
51950;DHT22;37974;53.218;6.640;2023-01-26T08:21:49;2.70;99.90
51950;DHT22;37974;53.218;6.640;2023-01-26T08:24:16;2.40;99.90
51950;DHT22;37974;53.218;6.640;2023-01-26T08:26:42;2.40;99.90
51950;DHT22;37974;53.218;6.640;2023-01-26T08:29:07;2.80;99.90
51950;DHT22;37974;53.218;6.640;2023-01-26T08:31:33;3.80;99.90
51950;DHT22;37974;53.218;6.640;2023-01-26T08:33:59;3.50;99.90
51950;DHT22;37974;53.218;6.640;2023-01-26T08:36:24;3.00;99.90
51950;DHT22;37974;53.218;6.640;2023-01-26T08:38:51;3.70;99.90
51950;DHT22;37974;53.218;6.640;2023-01-26T08:41:20;2.70;99.90
51950;DHT22;37974;53.218;6.640;2023-01-26T08:43:46;2.70;99.90
51950;DHT22;37974;53.218;6.640;2023-01-26T08:46:11;3.00;99.90
51950;DHT22;37974;53.218;6.640;2023-01-26T08:48:37;3.80;99.90
51950;DHT22;37974;53.218;6.640;2023-01-26T08:51:05;3.20;99.90
51950;DHT22;37974;53.218;6.640;2023-01-26T08:53:32;3.00;99.90
51950;DHT22;37974;53.218;6.640;2023-01-26T08:56:03;3.80;99.90
51950;DHT22;37974;53.218;6.640;2023-01-26T08:58:29;3.10;99.90
51950;DHT22;37974;53.218;6.640;2023-01-26T09:00:55;4.30;99.90
51950;DHT22;37974;53.218;6.640;2023-01-26T09:03:21;3.20;99.90
51950;DHT22;37974;53.218;6.640;2023-01-26T09:05:47;3.80;99.90
51950;DHT22;37974;53.218;6.640;2023-01-26T09:08:12;4.00;99.90
51950;DHT22;37974;53.218;6.640;2023-01-26T09:10:38;3.90;99.90
51950;DHT22;37974;53.218;6.640;2023-01-26T09:13:04;3.30;99.90
51950;DHT22;37974;53.218;6.640;2023-01-26T09:15:30;4.50;99.90
51950;DHT22;37974;53.218;6.640;2023-01-26T09:17:56;3.40;99.90
51950;DHT22;37974;53.218;6.640;2023-01-26T09:20:22;3.40;99.90
51950;DHT22;37974;53.218;6.640;2023-01-26T09:22:47;3.40;99.90
51950;DHT22;37974;53.218;6.640;2023-01-26T09:25:14;4.40;99.90
51950;DHT22;37974;53.218;6.640;2023-01-26T09:27:40;3.60;99.90
51950;DHT22;37974;53.218;6.640;2023-01-26T09:30:07;3.80;99.90
51950;DHT22;37974;53.218;6.640;2023-01-26T09:32:33;3.80;99.90
51950;DHT22;37974;53.218;6.640;2023-01-26T09:34:59;3.90;99.90
51950;DHT22;37974;53.218;6.640;2023-01-26T09:37:24;4.10;99.90
51950;DHT22;37974;53.218;6.640;2023-01-26T09:39:50;4.20;99.90
51950;DHT22;37974;53.218;6.640;2023-01-26T09:48:05;4.50;99.90
51950;DHT22;37974;53.218;6.640;2023-01-26T09:50:40;4.70;99.90
51950;DHT22;37974;53.218;6.640;2023-01-26T09:53:19;4.70;99.90
51950;DHT22;37974;53.218;6.640;2023-01-26T09:55:50;5.10;99.90
51950;DHT22;37974;53.218;6.640;2023-01-26T09:58:29;4.90;99.90
51950;DHT22;37974;53.218;6.640;2023-01-26T10:00:59;5.20;99.90
51950;DHT22;37974;53.218;6.640;2023-01-26T10:03:42;5.10;99.90
51950;DHT22;37974;53.218;6.640;2023-01-26T10:06:20;5.10;99.90
51950;DHT22;37974;53.218;6.640;2023-01-26T10:08:48;5.20;99.90
51950;DHT22;37974;53.218;6.640;2023-01-26T10:11:21;5.30;99.90
51950;DHT22;37974;53.218;6.640;2023-01-26T10:13:55;5.20;99.90
51950;DHT22;37974;53.218;6.640;2023-01-26T10:16:21;5.30;99.90
51950;DHT22;37974;53.218;6.640;2023-01-26T10:18:54;5.40;99.90
51950;DHT22;37974;53.218;6.640;2023-01-26T10:21:24;5.50;99.90
51950;DHT22;37974;53.218;6.640;2023-01-26T10:23:51;5.60;99.90
51950;DHT22;37974;53.218;6.640;2023-01-26T10:26:19;5.60;99.90
51950;DHT22;37974;53.218;6.640;2023-01-26T10:28:48;6.00;99.90
51950;DHT22;37974;53.218;6.640;2023-01-26T10:31:19;5.70;99.90
51950;DHT22;37974;53.218;6.640;2023-01-26T10:33:52;5.70;99.90
51950;DHT22;37974;53.218;6.640;2023-01-26T10:36:18;5.90;99.90
51950;DHT22;37974;53.218;6.640;2023-01-26T10:38:46;6.00;99.90
51950;DHT22;37974;53.218;6.640;2023-01-26T10:43:52;6.10;99.90
51950;DHT22;37974;53.218;6.640;2023-01-26T10:46:37;6.10;99.90
51950;DHT22;37974;53.218;6.640;2023-01-26T10:51:39;6.60;99.90
51950;DHT22;37974;53.218;6.640;2023-01-26T10:54:21;6.40;99.90
51950;DHT22;37974;53.218;6.640;2023-01-26T10:57:01;6.60;99.90
51950;DHT22;37974;53.218;6.640;2023-01-26T10:59:41;6.70;99.90
51950;DHT22;37974;53.218;6.640;2023-01-26T11:10:36;6.60;99.90
51950;DHT22;37974;53.218;6.640;2023-01-26T11:13:15;6.50;99.90
51950;DHT22;37974;53.218;6.640;2023-01-26T11:16:21;6.80;99.90
51950;DHT22;37974;53.218;6.640;2023-01-26T11:19:05;6.60;99.90
51950;DHT22;37974;53.218;6.640;2023-01-26T11:21:45;5.80;99.90
51950;DHT22;37974;53.218;6.640;2023-01-26T11:24:30;7.20;99.90
51950;DHT22;37974;53.218;6.640;2023-01-26T11:30:15;6.00;99.90
51950;DHT22;37974;53.218;6.640;2023-01-26T11:33:57;7.30;99.90
51950;DHT22;37974;53.218;6.640;2023-01-26T12:00:36;6.30;99.90
51950;DHT22;37974;53.218;6.640;2023-01-26T12:03:24;6.70;99.90
51950;DHT22;37974;53.218;6.640;2023-01-26T12:06:12;6.80;99.90
51950;DHT22;37974;53.218;6.640;2023-01-26T12:08:49;6.80;99.90
51950;DHT22;37974;53.218;6.640;2023-01-26T12:11:39;6.80;99.90
51950;DHT22;37974;53.218;6.640;2023-01-26T12:19:46;7.00;99.90
51950;DHT22;37974;53.218;6.640;2023-01-26T12:22:24;7.00;99.90
51950;DHT22;37974;53.218;6.640;2023-01-26T12:24:57;6.80;99.90
51950;DHT22;37974;53.218;6.640;2023-01-26T12:27:32;7.20;99.90
51950;DHT22;37974;53.218;6.640;2023-01-26T12:33:18;7.20;99.90
51950;DHT22;37974;53.218;6.640;2023-01-26T12:36:03;7.20;99.90
51950;DHT22;37974;53.218;6.640;2023-01-26T12:38:59;7.20;99.90
51950;DHT22;37974;53.218;6.640;2023-01-26T12:44:40;7.30;99.90
51950;DHT22;37974;53.218;6.640;2023-01-26T12:47:53;7.30;99.90
51950;DHT22;37974;53.218;6.640;2023-01-26T12:50:26;7.40;99.90
51950;DHT22;37974;53.218;6.640;2023-01-26T13:07:01;7.20;99.90
51950;DHT22;37974;53.218;6.640;2023-01-26T13:21:31;7.40;99.90
51950;DHT22;37974;53.218;6.640;2023-01-26T13:28:18;7.30;99.90
51950;DHT22;37974;53.218;6.640;2023-01-26T13:31:13;7.20;99.90
51950;DHT22;37974;53.218;6.640;2023-01-26T13:34:21;6.80;99.90
51950;DHT22;37974;53.218;6.640;2023-01-26T13:36:49;7.20;99.90
51950;DHT22;37974;53.218;6.640;2023-01-26T13:39:41;7.20;99.90
51950;DHT22;37974;53.218;6.640;2023-01-26T13:42:45;7.20;99.90
51950;DHT22;37974;53.218;6.640;2023-01-26T13:51:01;7.10;99.90
51950;DHT22;37974;53.218;6.640;2023-01-26T13:53:40;7.00;99.90
51950;DHT22;37974;53.218;6.640;2023-01-26T13:56:25;7.10;99.90
51950;DHT22;37974;53.218;6.640;2023-01-26T13:59:15;7.00;99.90
51950;DHT22;37974;53.218;6.640;2023-01-26T14:01:50;7.00;99.90
51950;DHT22;37974;53.218;6.640;2023-01-26T14:04:35;7.00;99.90
51950;DHT22;37974;53.218;6.640;2023-01-26T14:07:10;7.00;99.90
51950;DHT22;37974;53.218;6.640;2023-01-26T14:09:53;7.00;99.90
51950;DHT22;37974;53.218;6.640;2023-01-26T14:12:28;7.00;99.90
51950;DHT22;37974;53.218;6.640;2023-01-26T14:14:58;7.40;99.90
51950;DHT22;37974;53.218;6.640;2023-01-26T14:17:31;7.00;99.90
51950;DHT22;37974;53.218;6.640;2023-01-26T14:20:06;6.90;99.90
51950;DHT22;37974;53.218;6.640;2023-01-26T14:22:43;6.80;99.90
51950;DHT22;37974;53.218;6.640;2023-01-26T14:25:25;7.20;99.90
51950;DHT22;37974;53.218;6.640;2023-01-26T14:27:50;6.90;99.90
51950;DHT22;37974;53.218;6.640;2023-01-26T14:30:30;7.00;99.90
51950;DHT22;37974;53.218;6.640;2023-01-26T14:35:26;6.90;99.90
51950;DHT22;37974;53.218;6.640;2023-01-26T14:38:05;6.90;99.90
51950;DHT22;37974;53.218;6.640;2023-01-26T14:40:43;6.80;99.90
51950;DHT22;37974;53.218;6.640;2023-01-26T14:43:11;6.90;99.90
51950;DHT22;37974;53.218;6.640;2023-01-26T14:45:37;6.80;99.90
51950;DHT22;37974;53.218;6.640;2023-01-26T14:48:07;6.80;99.90
51950;DHT22;37974;53.218;6.640;2023-01-26T14:50:34;6.80;99.90
51950;DHT22;37974;53.218;6.640;2023-01-26T14:53:01;6.80;99.90
51950;DHT22;37974;53.218;6.640;2023-01-26T14:55:31;6.80;99.90
51950;DHT22;37974;53.218;6.640;2023-01-26T14:58:00;6.80;99.90
51950;DHT22;37974;53.218;6.640;2023-01-26T15:00:32;6.80;99.90
51950;DHT22;37974;53.218;6.640;2023-01-26T15:03:10;6.70;99.90
51950;DHT22;37974;53.218;6.640;2023-01-26T15:05:38;6.70;99.90
51950;DHT22;37974;53.218;6.640;2023-01-26T15:09:03;7.10;99.90
51950;DHT22;37974;53.218;6.640;2023-01-26T15:11:25;6.60;99.90
51950;DHT22;37974;53.218;6.640;2023-01-26T15:14:33;6.50;99.90
51950;DHT22;37974;53.218;6.640;2023-01-26T15:17:03;6.50;99.90
51950;DHT22;37974;53.218;6.640;2023-01-26T15:19:37;6.40;99.90
51950;DHT22;37974;53.218;6.640;2023-01-26T15:22:04;6.30;99.90
51950;DHT22;37974;53.218;6.640;2023-01-26T15:24:30;6.20;99.90
51950;DHT22;37974;53.218;6.640;2023-01-26T15:27:04;6.10;99.90
51950;DHT22;37974;53.218;6.640;2023-01-26T15:29:31;6.10;99.90
51950;DHT22;37974;53.218;6.640;2023-01-26T15:31:58;5.90;99.90
51950;DHT22;37974;53.218;6.640;2023-01-26T15:34:34;6.30;99.90
51950;DHT22;37974;53.218;6.640;2023-01-26T15:37:03;5.70;99.90
51950;DHT22;37974;53.218;6.640;2023-01-26T15:39:48;5.70;99.90
51950;DHT22;37974;53.218;6.640;2023-01-26T15:42:19;5.60;99.90
51950;DHT22;37974;53.218;6.640;2023-01-26T15:44:45;6.00;99.90
51950;DHT22;37974;53.218;6.640;2023-01-26T15:47:11;5.40;99.90
51950;DHT22;37974;53.218;6.640;2023-01-26T15:49:41;5.30;99.90
51950;DHT22;37974;53.218;6.640;2023-01-26T15:52:12;5.30;99.90
51950;DHT22;37974;53.218;6.640;2023-01-26T15:54:38;5.20;99.90
51950;DHT22;37974;53.218;6.640;2023-01-26T15:57:04;6.10;99.90
51950;DHT22;37974;53.218;6.640;2023-01-26T15:59:30;5.30;99.90
51950;DHT22;37974;53.218;6.640;2023-01-26T16:01:56;5.30;99.90
51950;DHT22;37974;53.218;6.640;2023-01-26T16:04:22;5.00;99.90
51950;DHT22;37974;53.218;6.640;2023-01-26T16:06:49;5.00;99.90
51950;DHT22;37974;53.218;6.640;2023-01-26T16:09:15;5.00;99.90
51950;DHT22;37974;53.218;6.640;2023-01-26T16:11:46;5.60;99.90
51950;DHT22;37974;53.218;6.640;2023-01-26T16:14:13;4.80;99.90
51950;DHT22;37974;53.218;6.640;2023-01-26T16:16:39;4.70;99.90
51950;DHT22;37974;53.218;6.640;2023-01-26T16:19:05;4.60;99.90
51950;DHT22;37974;53.218;6.640;2023-01-26T16:21:53;4.70;99.90
51950;DHT22;37974;53.218;6.640;2023-01-26T16:24:19;4.60;99.90
51950;DHT22;37974;53.218;6.640;2023-01-26T16:26:47;5.30;99.90
51950;DHT22;37974;53.218;6.640;2023-01-26T16:29:13;4.50;99.90
51950;DHT22;37974;53.218;6.640;2023-01-26T16:31:39;4.50;99.90
51950;DHT22;37974;53.218;6.640;2023-01-26T16:34:05;4.60;99.90
51950;DHT22;37974;53.218;6.640;2023-01-26T16:36:31;4.50;99.90
51950;DHT22;37974;53.218;6.640;2023-01-26T16:38:57;4.50;99.90
51950;DHT22;37974;53.218;6.640;2023-01-26T16:41:26;5.60;99.90
51950;DHT22;37974;53.218;6.640;2023-01-26T16:43:54;5.10;99.90
51950;DHT22;37974;53.218;6.640;2023-01-26T16:46:20;4.40;99.90
51950;DHT22;37974;53.218;6.640;2023-01-26T16:48:46;5.30;99.90
51950;DHT22;37974;53.218;6.640;2023-01-26T16:53:43;4.30;99.90
51950;DHT22;37974;53.218;6.640;2023-01-26T16:56:11;4.30;99.90
51950;DHT22;37974;53.218;6.640;2023-01-26T16:58:37;4.70;99.90
51950;DHT22;37974;53.218;6.640;2023-01-26T17:01:03;4.30;99.90
51950;DHT22;37974;53.218;6.640;2023-01-26T17:03:30;4.30;99.90
51950;DHT22;37974;53.218;6.640;2023-01-26T17:05:56;4.30;99.90
51950;DHT22;37974;53.218;6.640;2023-01-26T17:08:22;4.20;99.90
51950;DHT22;37974;53.218;6.640;2023-01-26T17:10:48;4.10;99.90
51950;DHT22;37974;53.218;6.640;2023-01-26T17:13:14;5.10;99.90
51950;DHT22;37974;53.218;6.640;2023-01-26T17:15:41;4.40;99.90
51950;DHT22;37974;53.218;6.640;2023-01-26T17:18:10;4.10;99.90
51950;DHT22;37974;53.218;6.640;2023-01-26T17:20:36;4.60;99.90
51950;DHT22;37974;53.218;6.640;2023-01-26T17:23:03;4.00;99.90
51950;DHT22;37974;53.218;6.640;2023-01-26T17:25:29;4.00;99.90
51950;DHT22;37974;53.218;6.640;2023-01-26T17:27:54;5.10;99.90
51950;DHT22;37974;53.218;6.640;2023-01-26T17:30:20;4.00;99.90
51950;DHT22;37974;53.218;6.640;2023-01-26T17:32:46;3.90;99.90
51950;DHT22;37974;53.218;6.640;2023-01-26T17:35:12;3.90;99.90
51950;DHT22;37974;53.218;6.640;2023-01-26T17:37:38;4.30;99.90
51950;DHT22;37974;53.218;6.640;2023-01-26T17:40:06;3.90;99.90
51950;DHT22;37974;53.218;6.640;2023-01-26T17:42:32;3.80;99.90
51950;DHT22;37974;53.218;6.640;2023-01-26T17:44:59;3.80;99.90
51950;DHT22;37974;53.218;6.640;2023-01-26T17:47:26;3.70;99.90